Terminal Aerodrome Forecast
Issued by NWS Wilmington, OH

Current Version | Previous Version | Graphics & Text | Print | Product List | Glossary On
Versions: 1 2 3 4 5 6 7 8 9 10 11 12 13 14 15 16 17 18 19 20 21 22 23 24 25 26 27 28 29
000
FTUS41 KILN 151900 AAA
TAFCVG
TAF AMD
KCVG 151914Z 1519/1624 16010KT P6SM SCT025 BKN200
     FM152300 15008KT P6SM -RA SCT015 OVC050
     FM160400 17008KT P6SM VCSH SCT015 OVC035
     FM160600 18008KT P6SM -RA SCT009 OVC025
     FM161000 21010KT P6SM VCSH SCT009 OVC015
      TEMPO 1611/1613 5SM BR BKN009
     FM161500 22012G20KT P6SM -SHRA OVC015
     FM162200 26012G20KT P6SM VCSH OVC015=

USA.gov is the U.S. government's official web portal to all federal, state and local government web resources and services.